sensor_id;sensor_type;location;lat;lon;timestamp;pressure;altitude;pressure_sealevel;temperature;humidity
62600;BME280;48671;48.922;2.346;2022-11-25T00:00:33;100864.91;;;11.86;75.31
62600;BME280;48671;48.922;2.346;2022-11-25T00:02:58;100851.84;;;11.86;75.16
62600;BME280;48671;48.922;2.346;2022-11-25T00:05:24;100858.75;;;11.87;74.64
62600;BME280;48671;48.922;2.346;2022-11-25T00:07:50;100850.19;;;11.85;75.08
62600;BME280;48671;48.922;2.346;2022-11-25T00:10:15;100841.50;;;11.84;75.17
62600;BME280;48671;48.922;2.346;2022-11-25T00:12:41;100853.66;;;11.84;75.35
62600;BME280;48671;48.922;2.346;2022-11-25T00:15:06;100840.50;;;11.87;75.07
62600;BME280;48671;48.922;2.346;2022-11-25T00:17:31;100830.88;;;11.89;75.26
62600;BME280;48671;48.922;2.346;2022-11-25T00:19:57;100847.06;;;11.97;74.49
62600;BME280;48671;48.922;2.346;2022-11-25T00:22:25;100860.81;;;12.01;74.71
62600;BME280;48671;48.922;2.346;2022-11-25T00:24:50;100866.75;;;12.04;74.58
62600;BME280;48671;48.922;2.346;2022-11-25T00:27:16;100858.13;;;12.02;74.54
62600;BME280;48671;48.922;2.346;2022-11-25T00:29:41;100855.47;;;12.04;74.17
62600;BME280;48671;48.922;2.346;2022-11-25T00:32:06;100864.97;;;12.05;74.22
62600;BME280;48671;48.922;2.346;2022-11-25T00:34:32;100865.66;;;12.10;74.25
62600;BME280;48671;48.922;2.346;2022-11-25T00:36:57;100876.13;;;12.08;74.70
62600;BME280;48671;48.922;2.346;2022-11-25T00:39:22;100860.81;;;12.01;74.62
62600;BME280;48671;48.922;2.346;2022-11-25T00:41:49;100868.75;;;11.98;74.43
62600;BME280;48671;48.922;2.346;2022-11-25T00:44:33;100873.06;;;11.99;74.11
62600;BME280;48671;48.922;2.346;2022-11-25T00:49:30;100864.53;;;11.95;73.93
62600;BME280;48671;48.922;2.346;2022-11-25T00:51:56;100874.16;;;11.93;74.42
62600;BME280;48671;48.922;2.346;2022-11-25T00:54:22;100873.19;;;11.95;74.05
62600;BME280;48671;48.922;2.346;2022-11-25T00:56:48;100880.25;;;11.93;74.09
62600;BME280;48671;48.922;2.346;2022-11-25T00:59:13;100864.59;;;11.93;73.77
62600;BME280;48671;48.922;2.346;2022-11-25T01:01:39;100881.84;;;11.96;73.43
62600;BME280;48671;48.922;2.346;2022-11-25T01:04:05;100865.69;;;11.88;73.64
62600;BME280;48671;48.922;2.346;2022-11-25T01:06:31;100870.91;;;11.88;73.55
62600;BME280;48671;48.922;2.346;2022-11-25T01:08:56;100876.03;;;11.89;73.90
62600;BME280;48671;48.922;2.346;2022-11-25T01:11:22;100884.78;;;11.88;73.61
62600;BME280;48671;48.922;2.346;2022-11-25T01:13:48;100883.25;;;11.83;73.66
62600;BME280;48671;48.922;2.346;2022-11-25T01:16:17;100893.91;;;11.77;73.80
62600;BME280;48671;48.922;2.346;2022-11-25T01:18:43;100897.56;;;11.72;74.03
62600;BME280;48671;48.922;2.346;2022-11-25T01:21:11;100882.03;;;11.69;73.88
62600;BME280;48671;48.922;2.346;2022-11-25T01:23:38;100898.59;;;11.68;73.74
62600;BME280;48671;48.922;2.346;2022-11-25T01:26:09;100898.72;;;11.65;73.88
62600;BME280;48671;48.922;2.346;2022-11-25T01:28:35;100905.75;;;11.63;73.97
62600;BME280;48671;48.922;2.346;2022-11-25T01:31:09;100911.03;;;11.62;73.81
62600;BME280;48671;48.922;2.346;2022-11-25T01:33:35;100926.59;;;11.63;73.92
62600;BME280;48671;48.922;2.346;2022-11-25T01:36:05;100919.94;;;11.56;74.14
62600;BME280;48671;48.922;2.346;2022-11-25T01:38:32;100937.13;;;11.60;74.22
62600;BME280;48671;48.922;2.346;2022-11-25T01:40:58;100944.22;;;11.57;74.17
62600;BME280;48671;48.922;2.346;2022-11-25T01:43:24;100942.59;;;11.54;74.36
62600;BME280;48671;48.922;2.346;2022-11-25T01:45:50;100953.09;;;11.53;74.39
62600;BME280;48671;48.922;2.346;2022-11-25T01:48:21;100948.94;;;11.47;74.31
62600;BME280;48671;48.922;2.346;2022-11-25T01:50:49;100944.88;;;11.40;74.31
62600;BME280;48671;48.922;2.346;2022-11-25T01:53:15;100950.78;;;11.45;74.59
62600;BME280;48671;48.922;2.346;2022-11-25T01:55:48;100947.44;;;11.41;74.54
62600;BME280;48671;48.922;2.346;2022-11-25T01:58:17;100946.66;;;11.39;75.09
62600;BME280;48671;48.922;2.346;2022-11-25T02:00:45;100950.09;;;11.40;74.92
62600;BME280;48671;48.922;2.346;2022-11-25T02:03:18;100956.22;;;11.39;74.69
62600;BME280;48671;48.922;2.346;2022-11-25T02:06:12;100963.25;;;11.37;75.43
62600;BME280;48671;48.922;2.346;2022-11-25T02:08:39;100956.38;;;11.34;75.10
62600;BME280;48671;48.922;2.346;2022-11-25T02:11:06;100967.78;;;11.32;74.70
62600;BME280;48671;48.922;2.346;2022-11-25T02:13:32;100959.28;;;11.27;75.56
62600;BME280;48671;48.922;2.346;2022-11-25T02:15:57;100971.47;;;11.26;75.62
62600;BME280;48671;48.922;2.346;2022-11-25T02:18:25;100969.91;;;11.22;76.22
62600;BME280;48671;48.922;2.346;2022-11-25T02:20:50;100970.75;;;11.22;75.78
62600;BME280;48671;48.922;2.346;2022-11-25T02:25:51;100979.44;;;11.21;74.94
62600;BME280;48671;48.922;2.346;2022-11-25T02:28:25;100992.41;;;11.23;75.45
62600;BME280;48671;48.922;2.346;2022-11-25T02:30:52;100995.94;;;11.22;75.35
62600;BME280;48671;48.922;2.346;2022-11-25T02:33:18;100998.59;;;11.20;75.40
62600;BME280;48671;48.922;2.346;2022-11-25T02:40:56;101009.09;;;11.17;75.30
62600;BME280;48671;48.922;2.346;2022-11-25T02:43:24;101003.22;;;11.12;75.21
62600;BME280;48671;48.922;2.346;2022-11-25T02:48:22;101014.66;;;11.08;75.48
62600;BME280;48671;48.922;2.346;2022-11-25T02:50:48;101005.22;;;11.06;75.43
62600;BME280;48671;48.922;2.346;2022-11-25T02:53:13;101007.00;;;11.04;75.00
62600;BME280;48671;48.922;2.346;2022-11-25T02:55:39;101006.94;;;11.05;75.25
62600;BME280;48671;48.922;2.346;2022-11-25T02:58:05;101008.66;;;11.06;75.33
62600;BME280;48671;48.922;2.346;2022-11-25T03:00:31;101017.44;;;11.04;74.89
62600;BME280;48671;48.922;2.346;2022-11-25T03:02:56;101029.53;;;11.05;75.41
62600;BME280;48671;48.922;2.346;2022-11-25T03:05:22;101025.41;;;10.99;74.87
62600;BME280;48671;48.922;2.346;2022-11-25T03:07:48;101039.28;;;10.99;75.13
62600;BME280;48671;48.922;2.346;2022-11-25T03:10:13;101034.91;;;11.00;74.96
62600;BME280;48671;48.922;2.346;2022-11-25T03:12:39;101046.00;;;11.05;74.51
62600;BME280;48671;48.922;2.346;2022-11-25T03:15:05;101042.66;;;11.01;74.77
62600;BME280;48671;48.922;2.346;2022-11-25T03:17:30;101050.31;;;11.06;74.72
62600;BME280;48671;48.922;2.346;2022-11-25T03:19:55;101048.50;;;11.08;75.08
62600;BME280;48671;48.922;2.346;2022-11-25T03:22:21;101053.69;;;11.08;74.35
62600;BME280;48671;48.922;2.346;2022-11-25T03:24:46;101063.34;;;11.06;74.31
62600;BME280;48671;48.922;2.346;2022-11-25T03:27:11;101070.25;;;11.07;74.43
62600;BME280;48671;48.922;2.346;2022-11-25T03:29:37;101078.16;;;11.04;74.45
62600;BME280;48671;48.922;2.346;2022-11-25T03:32:02;101082.63;;;11.00;74.22
62600;BME280;48671;48.922;2.346;2022-11-25T03:34:28;101086.81;;;11.05;74.22
62600;BME280;48671;48.922;2.346;2022-11-25T03:36:53;101086.81;;;11.05;74.26
62600;BME280;48671;48.922;2.346;2022-11-25T03:39:18;101089.53;;;11.01;73.70
62600;BME280;48671;48.922;2.346;2022-11-25T03:41:43;101087.94;;;10.97;73.93
62600;BME280;48671;48.922;2.346;2022-11-25T03:44:09;101094.91;;;10.97;74.35
62600;BME280;48671;48.922;2.346;2022-11-25T03:46:34;101101.97;;;10.93;74.38
62600;BME280;48671;48.922;2.346;2022-11-25T03:48:59;101105.59;;;10.89;74.74
62600;BME280;48671;48.922;2.346;2022-11-25T03:51:25;101109.03;;;10.90;74.24
62600;BME280;48671;48.922;2.346;2022-11-25T03:53:50;101096.16;;;10.85;74.45
62600;BME280;48671;48.922;2.346;2022-11-25T03:56:15;101104.72;;;10.89;74.12
62600;BME280;48671;48.922;2.346;2022-11-25T03:58:41;101109.13;;;10.87;74.46
62600;BME280;48671;48.922;2.346;2022-11-25T04:01:06;101106.53;;;10.87;74.54
62600;BME280;48671;48.922;2.346;2022-11-25T04:03:32;101114.28;;;10.88;74.36
62600;BME280;48671;48.922;2.346;2022-11-25T04:05:57;101118.59;;;10.89;74.59
62600;BME280;48671;48.922;2.346;2022-11-25T04:08:22;101116.03;;;10.88;74.17
62600;BME280;48671;48.922;2.346;2022-11-25T04:10:49;101117.72;;;10.89;74.55
62600;BME280;48671;48.922;2.346;2022-11-25T04:13:14;101117.97;;;10.83;74.51
62600;BME280;48671;48.922;2.346;2022-11-25T04:15:48;101129.22;;;10.83;74.81
62600;BME280;48671;48.922;2.346;2022-11-25T04:18:14;101120.78;;;10.75;74.79
62600;BME280;48671;48.922;2.346;2022-11-25T04:20:39;101124.13;;;10.78;74.68
62600;BME280;48671;48.922;2.346;2022-11-25T04:23:05;101131.09;;;10.78;74.62
62600;BME280;48671;48.922;2.346;2022-11-25T04:25:31;101135.56;;;10.74;74.77
62600;BME280;48671;48.922;2.346;2022-11-25T04:27:56;101150.13;;;10.80;74.85
62600;BME280;48671;48.922;2.346;2022-11-25T04:30:22;101137.16;;;10.78;75.08
62600;BME280;48671;48.922;2.346;2022-11-25T04:32:47;101142.47;;;10.75;75.13
62600;BME280;48671;48.922;2.346;2022-11-25T04:35:12;101151.94;;;10.78;74.90
62600;BME280;48671;48.922;2.346;2022-11-25T04:37:38;101159.63;;;10.81;74.71
62600;BME280;48671;48.922;2.346;2022-11-25T04:40:03;101165.69;;;10.82;74.66
62600;BME280;48671;48.922;2.346;2022-11-25T04:42:29;101157.09;;;10.80;74.53
62600;BME280;48671;48.922;2.346;2022-11-25T04:44:59;101162.34;;;10.78;74.82
62600;BME280;48671;48.922;2.346;2022-11-25T04:47:25;101161.47;;;10.79;74.73
62600;BME280;48671;48.922;2.346;2022-11-25T04:49:50;101165.78;;;10.78;74.89
62600;BME280;48671;48.922;2.346;2022-11-25T04:52:16;101165.00;;;10.76;74.86
62600;BME280;48671;48.922;2.346;2022-11-25T04:54:41;101180.53;;;10.80;74.67
62600;BME280;48671;48.922;2.346;2022-11-25T04:57:11;101177.09;;;10.77;74.95
62600;BME280;48671;48.922;2.346;2022-11-25T04:59:36;101178.91;;;10.75;74.97
62600;BME280;48671;48.922;2.346;2022-11-25T05:02:12;101192.88;;;10.73;74.95
62600;BME280;48671;48.922;2.346;2022-11-25T05:04:39;101196.44;;;10.70;75.20
62600;BME280;48671;48.922;2.346;2022-11-25T05:07:05;101203.31;;;10.71;74.95
62600;BME280;48671;48.922;2.346;2022-11-25T05:09:30;101206.88;;;10.69;75.02
62600;BME280;48671;48.922;2.346;2022-11-25T05:11:55;101200.97;;;10.64;75.07
62600;BME280;48671;48.922;2.346;2022-11-25T05:14:21;101207.03;;;10.64;75.08
62600;BME280;48671;48.922;2.346;2022-11-25T05:16:48;101208.78;;;10.64;74.95
62600;BME280;48671;48.922;2.346;2022-11-25T05:19:13;101215.00;;;10.60;75.02
62600;BME280;48671;48.922;2.346;2022-11-25T05:21:38;101227.94;;;10.61;75.00
62600;BME280;48671;48.922;2.346;2022-11-25T05:24:04;101226.25;;;10.60;75.03
62600;BME280;48671;48.922;2.346;2022-11-25T05:26:29;101221.16;;;10.55;75.02
62600;BME280;48671;48.922;2.346;2022-11-25T05:28:55;101229.94;;;10.53;74.91
62600;BME280;48671;48.922;2.346;2022-11-25T05:31:20;101229.16;;;10.49;75.16
62600;BME280;48671;48.922;2.346;2022-11-25T05:33:45;101236.91;;;10.51;75.34
62600;BME280;48671;48.922;2.346;2022-11-25T05:36:11;101237.94;;;10.45;75.37
62600;BME280;48671;48.922;2.346;2022-11-25T05:38:36;101241.47;;;10.44;75.82
62600;BME280;48671;48.922;2.346;2022-11-25T05:41:04;101239.88;;;10.39;75.77
62600;BME280;48671;48.922;2.346;2022-11-25T05:43:30;101246.84;;;10.38;76.06
62600;BME280;48671;48.922;2.346;2022-11-25T05:45:55;101251.13;;;10.39;75.80
62600;BME280;48671;48.922;2.346;2022-11-25T05:48:21;101249.34;;;10.41;75.64
62600;BME280;48671;48.922;2.346;2022-11-25T05:50:46;101253.78;;;10.38;75.72
62600;BME280;48671;48.922;2.346;2022-11-25T05:53:12;101252.19;;;10.34;75.39
62600;BME280;48671;48.922;2.346;2022-11-25T05:55:38;101260.88;;;10.32;75.97
62600;BME280;48671;48.922;2.346;2022-11-25T05:58:03;101244.56;;;10.27;76.28
62600;BME280;48671;48.922;2.346;2022-11-25T06:00:30;101260.88;;;10.32;75.96
62600;BME280;48671;48.922;2.346;2022-11-25T06:02:56;101262.63;;;10.32;75.70
62600;BME280;48671;48.922;2.346;2022-11-25T06:05:22;101269.50;;;10.35;75.57
62600;BME280;48671;48.922;2.346;2022-11-25T06:07:47;101269.72;;;10.27;75.95
62600;BME280;48671;48.922;2.346;2022-11-25T06:10:13;101281.72;;;10.31;76.12
62600;BME280;48671;48.922;2.346;2022-11-25T06:12:38;101270.63;;;10.24;75.97
62600;BME280;48671;48.922;2.346;2022-11-25T06:15:04;101268.88;;;10.23;75.57
62600;BME280;48671;48.922;2.346;2022-11-25T06:17:30;101287.16;;;10.22;75.58
62600;BME280;48671;48.922;2.346;2022-11-25T06:19:55;101288.91;;;10.21;75.92
62600;BME280;48671;48.922;2.346;2022-11-25T06:22:20;101282.97;;;10.16;75.82
62600;BME280;48671;48.922;2.346;2022-11-25T06:24:46;101287.28;;;10.17;75.58
62600;BME280;48671;48.922;2.346;2022-11-25T06:27:11;101287.31;;;10.16;75.84
62600;BME280;48671;48.922;2.346;2022-11-25T06:29:36;101300.16;;;10.22;75.44
62600;BME280;48671;48.922;2.346;2022-11-25T06:32:02;101296.81;;;10.17;75.49
62600;BME280;48671;48.922;2.346;2022-11-25T06:34:28;101307.13;;;10.20;75.29
62600;BME280;48671;48.922;2.346;2022-11-25T06:36:53;101310.72;;;10.16;75.34
62600;BME280;48671;48.922;2.346;2022-11-25T06:39:18;101315.06;;;10.15;75.24
62600;BME280;48671;48.922;2.346;2022-11-25T06:41:44;101313.41;;;10.13;75.26
62600;BME280;48671;48.922;2.346;2022-11-25T06:44:11;101324.63;;;10.15;75.07
62600;BME280;48671;48.922;2.346;2022-11-25T06:46:36;101315.16;;;10.12;75.28
62600;BME280;48671;48.922;2.346;2022-11-25T06:49:01;101317.63;;;10.17;75.23
62600;BME280;48671;48.922;2.346;2022-11-25T06:51:27;101320.22;;;10.17;75.13
62600;BME280;48671;48.922;2.346;2022-11-25T06:53:53;101330.50;;;10.21;75.08
62600;BME280;48671;48.922;2.346;2022-11-25T06:56:20;101333.13;;;10.21;74.99
62600;BME280;48671;48.922;2.346;2022-11-25T06:58:46;101326.31;;;10.17;74.92
62600;BME280;48671;48.922;2.346;2022-11-25T07:01:26;101327.94;;;10.20;74.81
62600;BME280;48671;48.922;2.346;2022-11-25T07:03:54;101328.94;;;10.16;75.01
62600;BME280;48671;48.922;2.346;2022-11-25T07:06:20;101329.00;;;10.13;74.92
62600;BME280;48671;48.922;2.346;2022-11-25T07:08:47;101331.44;;;10.19;74.53
62600;BME280;48671;48.922;2.346;2022-11-25T07:11:21;101324.56;;;10.16;74.76
62600;BME280;48671;48.922;2.346;2022-11-25T07:13:47;101334.13;;;10.16;74.76
62600;BME280;48671;48.922;2.346;2022-11-25T07:16:13;101338.53;;;10.14;74.71
62600;BME280;48671;48.922;2.346;2022-11-25T07:18:40;101355.78;;;10.16;74.77
62600;BME280;48671;48.922;2.346;2022-11-25T07:21:07;101369.63;;;10.17;74.65
62600;BME280;48671;48.922;2.346;2022-11-25T07:23:34;101370.59;;;10.14;74.66
62600;BME280;48671;48.922;2.346;2022-11-25T07:26:04;101380.22;;;10.11;74.66
62600;BME280;48671;48.922;2.346;2022-11-25T07:28:30;101377.63;;;10.09;74.89
62600;BME280;48671;48.922;2.346;2022-11-25T07:31:03;101390.56;;;10.12;74.66
62600;BME280;48671;48.922;2.346;2022-11-25T07:33:29;101391.53;;;10.08;74.52
62600;BME280;48671;48.922;2.346;2022-11-25T07:35:54;101394.91;;;10.12;74.60
62600;BME280;48671;48.922;2.346;2022-11-25T07:38:19;101395.75;;;10.14;74.65
62600;BME280;48671;48.922;2.346;2022-11-25T07:40:44;101390.53;;;10.14;74.63
62600;BME280;48671;48.922;2.346;2022-11-25T07:43:10;101404.13;;;10.23;74.58
62600;BME280;48671;48.922;2.346;2022-11-25T07:45:35;101401.56;;;10.22;74.62
62600;BME280;48671;48.922;2.346;2022-11-25T07:48:00;101408.44;;;10.24;74.15
62600;BME280;48671;48.922;2.346;2022-11-25T07:50:27;101404.19;;;10.22;74.45
62600;BME280;48671;48.922;2.346;2022-11-25T07:52:52;101413.69;;;10.23;74.06
62600;BME280;48671;48.922;2.346;2022-11-25T07:55:18;101418.72;;;10.30;74.34
62600;BME280;48671;48.922;2.346;2022-11-25T07:57:43;101416.06;;;10.34;73.91
62600;BME280;48671;48.922;2.346;2022-11-25T08:00:09;101429.78;;;10.39;74.37
62600;BME280;48671;48.922;2.346;2022-11-25T08:02:34;101439.28;;;10.40;73.93
62600;BME280;48671;48.922;2.346;2022-11-25T08:04:59;101445.47;;;10.36;73.53
62600;BME280;48671;48.922;2.346;2022-11-25T08:07:25;101456.72;;;10.36;73.70
62600;BME280;48671;48.922;2.346;2022-11-25T08:09:50;101462.75;;;10.38;73.77
62600;BME280;48671;48.922;2.346;2022-11-25T08:12:15;101464.56;;;10.35;73.84
62600;BME280;48671;48.922;2.346;2022-11-25T08:14:41;101464.50;;;10.38;73.76
62600;BME280;48671;48.922;2.346;2022-11-25T08:17:06;101459.38;;;10.33;73.94
62600;BME280;48671;48.922;2.346;2022-11-25T08:19:32;101469.63;;;10.39;73.55
62600;BME280;48671;48.922;2.346;2022-11-25T08:21:57;101468.00;;;10.37;73.67
62600;BME280;48671;48.922;2.346;2022-11-25T08:24:23;101469.63;;;10.41;73.37
62600;BME280;48671;48.922;2.346;2022-11-25T08:26:48;101469.03;;;10.29;73.62
62600;BME280;48671;48.922;2.346;2022-11-25T08:29:15;101494.94;;;10.34;73.41
62600;BME280;48671;48.922;2.346;2022-11-25T08:31:40;101483.69;;;10.32;73.56
62600;BME280;48671;48.922;2.346;2022-11-25T08:34:07;101498.34;;;10.36;73.40
62600;BME280;48671;48.922;2.346;2022-11-25T08:36:34;101489.81;;;10.31;73.53
62600;BME280;48671;48.922;2.346;2022-11-25T08:39:00;101491.69;;;10.24;73.31
62600;BME280;48671;48.922;2.346;2022-11-25T08:41:30;101519.16;;;10.36;73.74
62600;BME280;48671;48.922;2.346;2022-11-25T08:43:58;101508.81;;;10.33;73.79
62600;BME280;48671;48.922;2.346;2022-11-25T08:46:27;101523.34;;;10.42;73.62
62600;BME280;48671;48.922;2.346;2022-11-25T08:48:54;101518.22;;;10.39;73.28
62600;BME280;48671;48.922;2.346;2022-11-25T08:51:23;101526.78;;;10.44;74.04
62600;BME280;48671;48.922;2.346;2022-11-25T08:53:49;101527.56;;;10.47;73.45
62600;BME280;48671;48.922;2.346;2022-11-25T08:56:15;101537.75;;;10.55;73.79
62600;BME280;48671;48.922;2.346;2022-11-25T08:58:41;101540.19;;;10.63;73.20
62600;BME280;48671;48.922;2.346;2022-11-25T09:01:07;101544.31;;;10.70;73.08
62600;BME280;48671;48.922;2.346;2022-11-25T09:03:45;101544.25;;;10.73;72.68
62600;BME280;48671;48.922;2.346;2022-11-25T09:06:11;101549.19;;;10.82;72.69
62600;BME280;48671;48.922;2.346;2022-11-25T09:08:38;101543.72;;;10.93;72.86
62600;BME280;48671;48.922;2.346;2022-11-25T09:11:04;101556.06;;;11.17;72.92
62600;BME280;48671;48.922;2.346;2022-11-25T09:13:30;101560.69;;;11.37;71.01
62600;BME280;48671;48.922;2.346;2022-11-25T09:15:56;101564.91;;;11.43;70.80
62600;BME280;48671;48.922;2.346;2022-11-25T09:18:21;101564.03;;;11.42;71.10
62600;BME280;48671;48.922;2.346;2022-11-25T09:20:51;101580.13;;;11.57;71.30
62600;BME280;48671;48.922;2.346;2022-11-25T09:23:17;101577.22;;;11.67;71.09
62600;BME280;48671;48.922;2.346;2022-11-25T09:25:50;101586.34;;;11.82;70.16
62600;BME280;48671;48.922;2.346;2022-11-25T09:28:16;101590.47;;;11.91;69.90
62600;BME280;48671;48.922;2.346;2022-11-25T09:30:41;101600.88;;;11.91;69.93
62600;BME280;48671;48.922;2.346;2022-11-25T09:33:07;101604.34;;;11.91;69.55
62600;BME280;48671;48.922;2.346;2022-11-25T09:35:33;101596.56;;;11.90;69.46
62600;BME280;48671;48.922;2.346;2022-11-25T09:37:58;101605.38;;;11.86;69.45
62600;BME280;48671;48.922;2.346;2022-11-25T09:46:37;101614.34;;;11.76;69.11
62600;BME280;48671;48.922;2.346;2022-11-25T09:52:20;101624.09;;;11.69;68.90
62600;BME280;48671;48.922;2.346;2022-11-25T09:54:58;101621.56;;;11.66;69.00
62600;BME280;48671;48.922;2.346;2022-11-25T09:57:47;101628.56;;;11.64;69.40
62600;BME280;48671;48.922;2.346;2022-11-25T10:00:17;101634.66;;;11.64;69.04
62600;BME280;48671;48.922;2.346;2022-11-25T10:02:59;101642.28;;;11.70;69.59
62600;BME280;48671;48.922;2.346;2022-11-25T10:05:35;101647.25;;;11.80;68.55
62600;BME280;48671;48.922;2.346;2022-11-25T10:08:15;101635.81;;;11.85;68.35
62600;BME280;48671;48.922;2.346;2022-11-25T10:10:47;101644.91;;;12.02;68.46
62600;BME280;48671;48.922;2.346;2022-11-25T10:13:23;101649.03;;;12.09;68.08
62600;BME280;48671;48.922;2.346;2022-11-25T10:15:53;101656.50;;;12.21;67.90
62600;BME280;48671;48.922;2.346;2022-11-25T10:18:41;101668.16;;;12.37;68.01
62600;BME280;48671;48.922;2.346;2022-11-25T10:21:09;101656.78;;;12.40;67.53
62600;BME280;48671;48.922;2.346;2022-11-25T10:23:38;101659.03;;;12.51;67.55
62600;BME280;48671;48.922;2.346;2022-11-25T10:26:14;101675.22;;;12.62;66.59
62600;BME280;48671;48.922;2.346;2022-11-25T10:28:50;101678.28;;;12.75;67.00
62600;BME280;48671;48.922;2.346;2022-11-25T10:31:34;101687.09;;;12.99;66.53
62600;BME280;48671;48.922;2.346;2022-11-25T10:34:01;101684.81;;;13.15;66.04
62600;BME280;48671;48.922;2.346;2022-11-25T10:36:38;101677.50;;;13.26;65.07
62600;BME280;48671;48.922;2.346;2022-11-25T10:39:21;101694.56;;;13.36;65.51
62600;BME280;48671;48.922;2.346;2022-11-25T10:41:59;101688.94;;;13.47;65.33
62600;BME280;48671;48.922;2.346;2022-11-25T10:44:35;101691.34;;;13.53;63.61
62600;BME280;48671;48.922;2.346;2022-11-25T10:47:24;101682.22;;;13.65;64.42
62600;BME280;48671;48.922;2.346;2022-11-25T10:52:29;101691.31;;;14.01;64.30
62600;BME280;48671;48.922;2.346;2022-11-25T10:55:19;101697.91;;;14.12;61.97
62600;BME280;48671;48.922;2.346;2022-11-25T10:57:44;101700.72;;;14.07;63.53
62600;BME280;48671;48.922;2.346;2022-11-25T11:00:35;101704.28;;;14.28;63.28
62600;BME280;48671;48.922;2.346;2022-11-25T11:03:23;101712.75;;;14.35;63.05
62600;BME280;48671;48.922;2.346;2022-11-25T11:05:51;101713.31;;;14.43;62.71
62600;BME280;48671;48.922;2.346;2022-11-25T11:08:21;101717.53;;;14.47;62.79
62600;BME280;48671;48.922;2.346;2022-11-25T11:11:08;101719.63;;;14.61;61.75
62600;BME280;48671;48.922;2.346;2022-11-25T11:13:33;101712.13;;;14.73;61.50
62600;BME280;48671;48.922;2.346;2022-11-25T11:15:59;101715.22;;;14.83;60.59
62600;BME280;48671;48.922;2.346;2022-11-25T11:20:57;101730.88;;;15.07;60.22
62600;BME280;48671;48.922;2.346;2022-11-25T11:23:24;101717.88;;;15.04;61.03
62600;BME280;48671;48.922;2.346;2022-11-25T11:26:02;101718.31;;;15.15;59.74
62600;BME280;48671;48.922;2.346;2022-11-25T11:31:16;101730.38;;;15.39;60.28
62600;BME280;48671;48.922;2.346;2022-11-25T11:52:57;101729.44;;;16.39;58.34
62600;BME280;48671;48.922;2.346;2022-11-25T11:55:54;101737.34;;;16.57;57.43
62600;BME280;48671;48.922;2.346;2022-11-25T11:58:40;101734.94;;;16.71;58.17
62600;BME280;48671;48.922;2.346;2022-11-25T12:01:28;101739.69;;;16.82;57.72
62600;BME280;48671;48.922;2.346;2022-11-25T12:04:15;101744.66;;;16.88;57.07
62600;BME280;48671;48.922;2.346;2022-11-25T12:06:45;101744.44;;;16.93;56.60
62600;BME280;48671;48.922;2.346;2022-11-25T12:09:16;101750.31;;;16.98;54.76
62600;BME280;48671;48.922;2.346;2022-11-25T12:11:47;101750.31;;;16.98;55.94
62600;BME280;48671;48.922;2.346;2022-11-25T12:14:29;101748.94;;;16.91;57.03
62600;BME280;48671;48.922;2.346;2022-11-25T12:16:58;101755.78;;;16.93;56.45
62600;BME280;48671;48.922;2.346;2022-11-25T12:19:45;101769.25;;;16.68;55.59
62600;BME280;48671;48.922;2.346;2022-11-25T12:22:28;101763.19;;;16.28;56.24
62600;BME280;48671;48.922;2.346;2022-11-25T12:25:10;101758.84;;;15.89;57.47
62600;BME280;48671;48.922;2.346;2022-11-25T12:27:39;101785.50;;;15.80;58.15
62600;BME280;48671;48.922;2.346;2022-11-25T12:30:11;101783.56;;;15.63;57.94
62600;BME280;48671;48.922;2.346;2022-11-25T12:32:55;101778.63;;;15.35;58.33
62600;BME280;48671;48.922;2.346;2022-11-25T12:38:40;101780.50;;;15.11;58.96
62600;BME280;48671;48.922;2.346;2022-11-25T12:41:39;101786.47;;;14.93;58.55
62600;BME280;48671;48.922;2.346;2022-11-25T12:44:13;101789.78;;;14.74;59.08
62600;BME280;48671;48.922;2.346;2022-11-25T12:46:52;101796.31;;;14.64;59.41
62600;BME280;48671;48.922;2.346;2022-11-25T12:52:38;101767.06;;;14.29;59.53
62600;BME280;48671;48.922;2.346;2022-11-25T13:10:05;101825.63;;;15.82;58.49
62600;BME280;48671;48.922;2.346;2022-11-25T13:15:43;101824.56;;;16.46;55.60
62600;BME280;48671;48.922;2.346;2022-11-25T13:18:13;101825.84;;;16.56;55.39
62600;BME280;48671;48.922;2.346;2022-11-25T13:20:46;101818.88;;;16.74;54.83
62600;BME280;48671;48.922;2.346;2022-11-25T13:25:43;101799.69;;;17.27;53.46
62600;BME280;48671;48.922;2.346;2022-11-25T13:31:19;101822.53;;;17.96;54.14
62600;BME280;48671;48.922;2.346;2022-11-25T13:36:21;101840.78;;;18.17;52.70
62600;BME280;48671;48.922;2.346;2022-11-25T13:44:02;101834.28;;;18.40;51.34
62600;BME280;48671;48.922;2.346;2022-11-25T13:49:41;101834.28;;;18.40;50.75
62600;BME280;48671;48.922;2.346;2022-11-25T13:54:55;101830.34;;;18.15;51.40
62600;BME280;48671;48.922;2.346;2022-11-25T13:57:34;101825.91;;;18.16;51.20
62600;BME280;48671;48.922;2.346;2022-11-25T14:00:06;101832.41;;;18.26;51.46
62600;BME280;48671;48.922;2.346;2022-11-25T14:02:37;101840.34;;;18.42;49.38
62600;BME280;48671;48.922;2.346;2022-11-25T14:09:08;101851.25;;;18.67;50.76
62600;BME280;48671;48.922;2.346;2022-11-25T14:20:04;101884.28;;;18.57;49.92
62600;BME280;48671;48.922;2.346;2022-11-25T14:25:22;101883.53;;;18.05;50.67
62600;BME280;48671;48.922;2.346;2022-11-25T14:27:57;101885.38;;;17.68;51.37
62600;BME280;48671;48.922;2.346;2022-11-25T14:30:24;101894.91;;;17.53;51.20
62600;BME280;48671;48.922;2.346;2022-11-25T14:33:00;101906.84;;;17.24;51.66
62600;BME280;48671;48.922;2.346;2022-11-25T14:35:31;101915.38;;;16.91;51.78
62600;BME280;48671;48.922;2.346;2022-11-25T14:38:10;101912.97;;;16.66;52.27
62600;BME280;48671;48.922;2.346;2022-11-25T14:40:41;101900.22;;;16.38;53.24
62600;BME280;48671;48.922;2.346;2022-11-25T14:43:13;101916.41;;;16.29;53.73
62600;BME280;48671;48.922;2.346;2022-11-25T14:45:40;101907.97;;;16.00;53.59